createdAt,value
2022-10-12T00:01:37.344Z,2.67
2022-10-12T00:06:39.508Z,2.60
2022-10-12T00:11:41.569Z,2.30
2022-10-12T00:16:43.649Z,1.80
2022-10-12T00:21:45.772Z,2.15
2022-10-12T00:26:50.869Z,2.20
2022-10-12T00:31:52.955Z,2.13
2022-10-12T00:36:56.410Z,1.98
2022-10-12T00:41:58.482Z,1.65
2022-10-12T00:47:03.580Z,1.92
2022-10-12T00:52:09.162Z,2.10
2022-10-12T00:57:14.959Z,1.75
2022-10-12T01:02:19.207Z,1.40
2022-10-12T01:07:21.352Z,1.67
2022-10-12T01:12:24.697Z,1.23
2022-10-12T01:17:36.133Z,1.27
2022-10-12T01:23:04.951Z,1.70
2022-10-12T01:28:44.568Z,1.85
2022-10-12T01:34:22.432Z,1.85
2022-10-12T01:39:31.086Z,1.80
2022-10-12T01:44:33.370Z,1.85
2022-10-12T01:49:36.019Z,1.70
2022-10-12T01:54:44.095Z,1.80
2022-10-12T02:00:12.265Z,1.80
2022-10-12T02:05:40.954Z,1.70
2022-10-12T02:11:06.775Z,1.88
2022-10-12T02:16:12.865Z,1.60
2022-10-12T02:21:20.804Z,1.77
2022-10-12T02:26:23.739Z,1.90
2022-10-12T02:31:47.660Z,2.17
2022-10-12T02:37:09.032Z,1.75
2022-10-12T02:42:17.875Z,1.90
2022-10-12T02:47:22.996Z,1.67
2022-10-12T02:52:25.456Z,1.43
2022-10-12T02:57:27.595Z,1.50
2022-10-12T03:02:29.634Z,2.10
2022-10-12T03:07:31.705Z,1.60
2022-10-12T03:12:33.786Z,1.33
2022-10-12T03:17:36.098Z,1.48
2022-10-12T03:22:38.445Z,1.42
2022-10-12T03:27:40.921Z,1.42
2022-10-12T03:32:43.130Z,1.50
2022-10-12T03:37:45.226Z,1.40
2022-10-12T03:42:47.458Z,1.50
2022-10-12T03:47:49.531Z,1.40
2022-10-12T03:52:51.618Z,1.20
2022-10-12T03:57:53.691Z,1.17
2022-10-12T04:02:56.068Z,1.05
2022-10-12T04:07:58.708Z,1.48
2022-10-12T04:13:00.901Z,1.50
2022-10-12T04:18:03.248Z,0.90
2022-10-12T04:23:05.463Z,1.13
2022-10-12T04:28:07.984Z,1.23
2022-10-12T04:33:10.139Z,1.17
2022-10-12T04:38:13.251Z,1.23
2022-10-12T04:43:16.868Z,1.10
2022-10-12T04:48:18.944Z,1.20
2022-10-12T04:53:21.346Z,1.33
2022-10-12T04:58:23.603Z,1.63
2022-10-12T05:03:26.099Z,1.10
2022-10-12T05:08:28.285Z,1.52
2022-10-12T05:13:30.638Z,1.30
2022-10-12T05:18:32.876Z,1.30
2022-10-12T05:23:35.072Z,1.20
2022-10-12T05:28:41.023Z,1.50
2022-10-12T05:33:43.547Z,1.25
2022-10-12T05:38:45.652Z,1.13
2022-10-12T05:43:47.906Z,1.17
2022-10-12T05:48:50.149Z,1.13
2022-10-12T05:53:52.361Z,1.20
2022-10-12T05:58:54.529Z,1.60
2022-10-12T06:03:56.692Z,1.25
2022-10-12T06:08:58.947Z,1.20
2022-10-12T06:14:01.104Z,1.40
2022-10-12T06:19:03.654Z,1.58
2022-10-12T06:24:06.090Z,1.40
2022-10-12T06:29:08.314Z,1.60
2022-10-12T06:34:10.440Z,1.80
2022-10-12T06:39:12.890Z,1.80
2022-10-12T06:44:15.077Z,1.48
2022-10-12T06:49:17.920Z,1.60
2022-10-12T06:54:20.270Z,2.03
2022-10-12T06:59:23.115Z,1.90
2022-10-12T07:04:25.311Z,1.70
2022-10-12T07:09:27.481Z,1.90
2022-10-12T07:14:29.866Z,2.00
2022-10-12T07:19:32.024Z,1.63
2022-10-12T07:24:36.832Z,1.90
2022-10-12T07:29:39.616Z,1.77
2022-10-12T07:34:44.715Z,1.85
2022-10-12T07:39:47.047Z,1.50
2022-10-12T07:44:49.205Z,1.40
2022-10-12T07:49:51.491Z,2.08
2022-10-12T07:54:53.645Z,1.63
2022-10-12T07:59:55.893Z,1.80
2022-10-12T08:04:58.044Z,1.80
2022-10-12T08:10:00.156Z,1.63
2022-10-12T08:15:02.505Z,1.83
2022-10-12T08:20:05.296Z,1.63
2022-10-12T08:25:07.951Z,2.13
2022-10-12T08:30:10.696Z,2.58
2022-10-12T08:35:12.835Z,1.77
2022-10-12T08:40:28.909Z,1.40
2022-10-12T08:45:56.947Z,1.73
2022-10-12T08:51:05.421Z,2.60
2022-10-12T08:56:09.443Z,3.55
2022-10-12T09:01:37.606Z,3.60
2022-10-12T09:06:52.376Z,3.65
2022-10-12T09:12:13.452Z,3.55
2022-10-12T09:17:39.049Z,3.30
2022-10-12T09:22:44.947Z,2.87
2022-10-12T09:33:28.609Z,2.78
2022-10-12T09:38:30.794Z,3.20
2022-10-12T09:43:33.052Z,3.67
2022-10-12T09:48:35.405Z,4.40
2022-10-12T09:53:48.053Z,3.55
2022-10-12T09:58:53.804Z,2.80
2022-10-12T10:04:17.680Z,2.95
2022-10-12T10:09:34.703Z,2.17
2022-10-12T10:14:37.376Z,2.38
2022-10-12T10:19:39.556Z,2.03
2022-10-12T10:24:41.705Z,2.47
2022-10-12T10:29:45.471Z,2.50
2022-10-12T10:34:47.594Z,2.33
2022-10-12T10:39:53.197Z,2.15
2022-10-12T10:45:05.114Z,2.42
2022-10-12T10:50:27.415Z,1.88
2022-10-12T10:55:42.084Z,1.90
2022-10-12T11:00:46.714Z,1.85
2022-10-12T11:05:56.548Z,1.63
2022-10-12T11:11:09.584Z,2.10
2022-10-12T11:16:30.716Z,1.83
2022-10-12T11:21:54.063Z,1.27
2022-10-12T11:27:04.249Z,1.45
2022-10-12T11:32:22.858Z,1.90
2022-10-12T11:37:50.356Z,1.55
2022-10-12T11:42:54.853Z,1.65
2022-10-12T11:48:02.054Z,1.88
2022-10-12T11:53:16.300Z,2.03
2022-10-12T11:58:42.346Z,1.67
2022-10-12T12:04:40.372Z,1.70
2022-10-12T12:09:49.351Z,1.52
2022-10-12T12:14:55.510Z,1.38
2022-10-12T12:20:02.537Z,1.50
2022-10-12T12:25:14.211Z,1.02
2022-10-12T12:30:19.292Z,1.42
2022-10-12T12:35:58.435Z,1.47
2022-10-12T12:41:14.785Z,1.60
2022-10-12T12:46:17.542Z,1.60
2022-10-12T12:51:31.944Z,1.83
2022-10-12T12:57:02.854Z,1.50
2022-10-12T13:02:35.817Z,2.22
2022-10-12T13:07:47.787Z,2.13
2022-10-12T13:13:08.192Z,1.90
2022-10-12T13:18:48.664Z,1.60
2022-10-12T13:24:03.530Z,1.73
2022-10-12T13:29:14.980Z,1.70
2022-10-12T13:34:20.271Z,1.60
2022-10-12T13:39:23.140Z,2.10
2022-10-12T13:44:46.335Z,1.77
2022-10-12T13:49:48.824Z,1.45
2022-10-12T13:54:51.907Z,1.60
2022-10-12T14:00:01.437Z,1.20
2022-10-12T14:05:12.015Z,1.40
2022-10-12T14:10:36.426Z,1.33
2022-10-12T14:15:40.568Z,1.48
2022-10-12T14:20:42.711Z,1.40
2022-10-12T14:25:54.260Z,1.30
2022-10-12T14:30:56.778Z,1.30
2022-10-12T14:36:20.498Z,1.30
2022-10-12T14:41:32.318Z,1.02
2022-10-12T14:46:34.971Z,1.38
2022-10-12T14:51:37.172Z,1.10
2022-10-12T14:56:39.838Z,1.20
2022-10-12T15:01:45.157Z,1.20
2022-10-12T15:06:51.052Z,1.30
2022-10-12T15:11:53.409Z,1.40
2022-10-12T15:16:57.907Z,1.10
2022-10-12T15:21:59.992Z,1.70
2022-10-12T15:27:02.419Z,1.08
2022-10-12T15:32:05.297Z,1.23
2022-10-12T15:37:09.253Z,1.33
2022-10-12T15:42:14.308Z,1.88
2022-10-12T15:47:16.553Z,1.40
2022-10-12T15:52:19.078Z,1.27
2022-10-12T15:57:21.247Z,1.33
2022-10-12T16:02:27.774Z,2.40
2022-10-12T16:07:29.978Z,1.15
2022-10-12T16:12:32.346Z,1.30
2022-10-12T16:17:34.483Z,1.40
2022-10-12T16:22:37.547Z,1.25
2022-10-12T16:27:40.027Z,1.50
2022-10-12T16:32:42.213Z,1.40
2022-10-12T16:37:44.371Z,1.40
2022-10-12T16:42:53.203Z,1.42
2022-10-12T16:47:55.367Z,1.55
2022-10-12T16:52:57.858Z,1.80
2022-10-12T16:57:59.999Z,1.60
2022-10-12T17:03:02.303Z,1.65
2022-10-12T17:08:04.478Z,1.90
2022-10-12T17:13:06.902Z,1.80
2022-10-12T17:18:09.484Z,1.42
2022-10-12T17:23:11.600Z,2.10
2022-10-12T17:28:13.742Z,1.85
2022-10-12T17:33:15.909Z,1.80
2022-10-12T17:38:18.133Z,1.77
2022-10-12T17:43:20.330Z,2.13
2022-10-12T17:48:23.238Z,2.00
2022-10-12T17:53:25.449Z,1.90
2022-10-12T17:58:27.752Z,3.80
2022-10-12T18:03:29.884Z,4.38
2022-10-12T18:08:32.683Z,4.63
2022-10-12T18:13:36.836Z,4.38
2022-10-12T18:18:39.623Z,4.65
2022-10-12T18:23:41.895Z,3.97
2022-10-12T18:28:44.043Z,4.65
2022-10-12T18:33:46.544Z,4.72
2022-10-12T18:38:48.995Z,5.38
2022-10-12T18:43:57.665Z,3.15
2022-10-12T18:49:02.843Z,2.60
2022-10-12T18:54:06.278Z,3.17
2022-10-12T18:59:09.683Z,3.08
2022-10-12T19:04:12.141Z,4.10
2022-10-12T19:09:14.408Z,3.08
2022-10-12T19:14:16.545Z,3.20
2022-10-12T19:19:21.505Z,2.90
2022-10-12T19:24:23.888Z,2.70
2022-10-12T19:29:27.020Z,2.50
2022-10-12T19:34:31.209Z,2.22
2022-10-12T19:44:37.852Z,1.73
2022-10-12T19:49:44.464Z,1.65
2022-10-12T19:54:49.448Z,2.10
2022-10-12T19:59:51.604Z,5.68
2022-10-12T20:04:54.361Z,5.05
2022-10-12T20:09:56.486Z,3.70
2022-10-12T20:14:58.983Z,3.28
2022-10-12T20:20:01.159Z,2.75
2022-10-12T20:25:06.961Z,2.42
2022-10-12T20:30:12.179Z,2.22
2022-10-12T20:35:14.394Z,1.90
2022-10-12T20:40:16.564Z,1.95
2022-10-12T20:45:18.739Z,1.90
2022-10-12T20:50:20.846Z,2.40
2022-10-12T20:55:23.077Z,2.03
2022-10-12T21:00:25.310Z,1.40
2022-10-12T21:05:27.700Z,1.80
2022-10-12T21:10:29.915Z,1.65
2022-10-12T21:15:31.987Z,1.30
2022-10-12T21:20:34.448Z,1.48
2022-10-12T21:25:36.606Z,1.70
2022-10-12T21:30:38.710Z,1.38
2022-10-12T21:35:41.132Z,1.52
2022-10-12T21:40:43.278Z,1.75
2022-10-12T21:45:45.444Z,2.20
2022-10-12T21:50:47.599Z,2.40
2022-10-12T21:55:49.729Z,1.92
2022-10-12T22:00:52.011Z,1.80
2022-10-12T22:05:54.295Z,1.90
2022-10-12T22:10:57.170Z,1.77
2022-10-12T22:16:05.450Z,2.47
2022-10-12T22:21:13.713Z,3.53
2022-10-12T22:26:18.796Z,4.75
2022-10-12T22:31:28.828Z,5.40
2022-10-12T22:36:32.039Z,4.78
2022-10-12T22:41:37.522Z,4.63
2022-10-12T22:46:39.627Z,4.57
2022-10-12T22:51:41.817Z,8.88
2022-10-12T22:56:44.006Z,8.00
2022-10-12T23:01:46.281Z,4.70
2022-10-12T23:06:48.645Z,4.40
2022-10-12T23:11:51.050Z,7.65
2022-10-12T23:16:53.127Z,8.27
2022-10-12T23:21:55.152Z,4.15
2022-10-12T23:26:57.205Z,2.30
2022-10-12T23:31:59.273Z,2.05
2022-10-12T23:37:01.388Z,1.70
2022-10-12T23:42:03.460Z,3.65
2022-10-12T23:47:05.566Z,3.95
2022-10-12T23:52:07.675Z,3.72
2022-10-12T23:57:28.119Z,4.15
